地図

経路データ

SID SEASON NUMBER BASIN SUBBASIN NAME ISO_TIME NATURE LAT LON WMO_WIND WMO_PRES WMO_AGENCY TRACK_TYPE DIST2LAND LANDFALL IFLAG USA_AGENCY USA_ATCF_ID USA_LAT USA_LON USA_RECORD USA_STATUS USA_WIND USA_PRES USA_SSHS USA_R34_NE USA_R34_SE USA_R34_SW USA_R34_NW USA_R50_NE USA_R50_SE USA_R50_SW USA_R50_NW USA_R64_NE USA_R64_SE USA_R64_SW USA_R64_NW USA_POCI USA_ROCI USA_RMW USA_EYE TOKYO_LAT TOKYO_LON TOKYO_GRADE TOKYO_WIND TOKYO_PRES TOKYO_R50_DIR TOKYO_R50_LONG TOKYO_R50_SHORT TOKYO_R30_DIR TOKYO_R30_LONG TOKYO_R30_SHORT TOKYO_LAND CMA_LAT CMA_LON CMA_CAT CMA_WIND CMA_PRES HKO_LAT HKO_LON HKO_CAT HKO_WIND HKO_PRES NEWDELHI_LAT NEWDELHI_LON NEWDELHI_GRADE NEWDELHI_WIND NEWDELHI_PRES NEWDELHI_CI NEWDELHI_DP NEWDELHI_POCI REUNION_LAT REUNION_LON REUNION_TYPE REUNION_WIND REUNION_PRES REUNION_TNUM REUNION_CI REUNION_RMW REUNION_R34_NE REUNION_R34_SE REUNION_R34_SW REUNION_R34_NW REUNION_R50_NE REUNION_R50_SE REUNION_R50_SW REUNION_R50_NW REUNION_R64_NE REUNION_R64_SE REUNION_R64_SW REUNION_R64_NW BOM_LAT BOM_LON BOM_TYPE BOM_WIND BOM_PRES BOM_TNUM BOM_CI BOM_RMW BOM_R34_NE BOM_R34_SE BOM_R34_SW BOM_R34_NW BOM_R50_NE BOM_R50_SE BOM_R50_SW BOM_R50_NW BOM_R64_NE BOM_R64_SE BOM_R64_SW BOM_R64_NW BOM_ROCI BOM_POCI BOM_EYE BOM_POS_METHOD BOM_PRES_METHOD NADI_LAT NADI_LON NADI_CAT NADI_WIND NADI_PRES WELLINGTON_LAT WELLINGTON_LON WELLINGTON_WIND WELLINGTON_PRES DS824_LAT DS824_LON DS824_STAGE DS824_WIND DS824_PRES TD9636_LAT TD9636_LON TD9636_STAGE TD9636_WIND TD9636_PRES TD9635_LAT TD9635_LON TD9635_WIND TD9635_PRES TD9635_ROCI NEUMANN_LAT NEUMANN_LON NEUMANN_CLASS NEUMANN_WIND NEUMANN_PRES MLC_LAT MLC_LON MLC_CLASS MLC_WIND MLC_PRES USA_GUST BOM_GUST BOM_GUST_PER REUNION_GUST REUNION_GUST_PER USA_SEAHGT USA_SEARAD_NE USA_SEARAD_SE USA_SEARAD_SW USA_SEARAD_NW STORM_SPEED STORM_DIR
1858060S12079 1858 4 SI MM NOT_NAMED 1858-03-01 06:00:00 NR -12.1000 78.8000 reunion main 2026 2026 _____O________ -1 -12.1000 78.8000 99 9.90000 4 253
1858060S12079 1858 4 SI MM NOT_NAMED 1858-03-01 09:00:00 NR -12.1573 78.6060 main 2040 2040 _____P________ -1 -12.1573 78.6060 99 4 253
1858060S12079 1858 4 SI MM NOT_NAMED 1858-03-01 12:00:00 NR -12.2198 78.4079 main 2042 2042 _____P________ -1 -12.2198 78.4079 99 4 251
1858060S12079 1858 4 SI MM NOT_NAMED 1858-03-01 15:00:00 NR -12.2927 78.2015 main 2056 2056 _____P________ -1 -12.2927 78.2015 99 4 249
1858060S12079 1858 4 SI MM NOT_NAMED 1858-03-01 18:00:00 NR -12.3815 77.9827 main 2070 2070 _____P________ -1 -12.3815 77.9827 99 5 246
1858060S12079 1858 4 SI MM NOT_NAMED 1858-03-01 21:00:00 NR -12.4913 77.7474 main 2086 2086 _____P________ -1 -12.4913 77.7474 99 5 243
1858060S12079 1858 4 SI MM NOT_NAMED 1858-03-02 00:00:00 NR -12.6275 77.4914 main 2100 2100 _____P________ -1 -12.6275 77.4914 99 6 240
1858060S12079 1858 4 SI MM NOT_NAMED 1858-03-02 03:00:00 NR -12.7953 77.2104 main 2128 2128 _____P________ -1 -12.7953 77.2104 99 7 237
1858060S12079 1858 4 SI MM NOT_NAMED 1858-03-02 06:00:00 NR -13.0000 76.9000 reunion main 2156 2151 _____O________ -1 -13.0000 76.9000 99 9.90000 8 235
1858060S12079 1858 4 SI MM NOT_NAMED 1858-03-02 09:00:00 NR -13.2450 76.5582 main 2151 2098 _____P________ -1 -13.2450 76.5582 99 9 233
1858060S12079 1858 4 SI MM NOT_NAMED 1858-03-02 12:00:00 NR -13.5267 76.1919 main 2098 2045 _____P________ -1 -13.5267 76.1919 99 9 231
1858060S12079 1858 4 SI MM NOT_NAMED 1858-03-02 15:00:00 NR -13.8401 75.8102 main 2045 1988 _____P________ -1 -13.8401 75.8102 99 10 229
1858060S12079 1858 4 SI MM NOT_NAMED 1858-03-02 18:00:00 NR -14.1797 75.4226 main 1988 1945 _____P________ -1 -14.1797 75.4226 99 10 227
1858060S12079 1858 4 SI MM NOT_NAMED 1858-03-02 21:00:00 NR -14.5406 75.0382 main 1935 1889 _____P________ -1 -14.5406 75.0382 99 10 225
1858060S12079 1858 4 SI MM NOT_NAMED 1858-03-03 00:00:00 NR -14.9176 74.6667 main 1889 1833 _____P________ -1 -14.9176 74.6667 99 10 222
1858060S12079 1858 4 SI MM NOT_NAMED 1858-03-03 03:00:00 NR -15.3057 74.3174 main 1833 1787 _____P________ -1 -15.3057 74.3174 99 10 219
1858060S12079 1858 4 SI MM NOT_NAMED 1858-03-03 06:00:00 NR -15.7000 74.0000 reunion main 1787 1743 _____O________ -1 -15.7000 74.0000 99 9.90000 10 216
1858060S12079 1858 4 SI MM NOT_NAMED 1858-03-03 09:00:00 NR -16.0895 73.7150 main 1743 1709 _____P________ -1 -16.0895 73.7150 99 10 213
1858060S12079 1858 4 SI MM NOT_NAMED 1858-03-03 12:00:00 NR -16.4915 73.4557 main 1709 1666 _____P________ -1 -16.4915 73.4557 99 9 210
1858060S12079 1858 4 SI MM NOT_NAMED 1858-03-03 15:00:00 NR -16.9012 73.2232 main 1666 1634 _____P________ -1 -16.9012 73.2232 99 9 207
1858060S12079 1858 4 SI MM NOT_NAMED 1858-03-03 18:00:00 NR -17.3139 73.0185 main 1634 1613 _____P________ -1 -17.3139 73.0185 99 9 204
1858060S12079 1858 4 SI MM NOT_NAMED 1858-03-03 21:00:00 NR -17.7248 72.8427 main 1603 1583 _____P________ -1 -17.7248 72.8427 99 9 201
1858060S12079 1858 4 SI MM NOT_NAMED 1858-03-04 00:00:00 NR -18.1294 72.6969 main 1583 1564 _____P________ -1 -18.1294 72.6969 99 8 197
1858060S12079 1858 4 SI MM NOT_NAMED 1858-03-04 03:00:00 NR -18.5227 72.5823 main 1564 1547 _____P________ -1 -18.5227 72.5823 99 8 193
1858060S12079 1858 4 SI MM NOT_NAMED 1858-03-04 06:00:00 NR -18.9000 72.5000 reunion main 1547 1532 _____O________ -1 -18.9000 72.5000 99 9.90000 7 191
1858060S12079 1858 4 SI MM NOT_NAMED 1858-03-04 09:00:00 NR -19.2522 72.4241 main 1530 1527 _____P________ -1 -19.2522 72.4241 99 7 189
1858060S12079 1858 4 SI MM NOT_NAMED 1858-03-04 12:00:00 NR -19.5907 72.3818 main 1527 1524 _____P________ -1 -19.5907 72.3818 99 7 185
1858060S12079 1858 4 SI MM NOT_NAMED 1858-03-04 15:00:00 NR -19.9167 72.3709 main 1524 1522 _____P________ -1 -19.9167 72.3709 99 6 0
1858060S12079 1858 4 SI MM NOT_NAMED 1858-03-04 18:00:00 NR -20.2314 72.3888 main 1522 1521 _____P________ -1 -20.2314 72.3888 99 6 175
1858060S12079 1858 4 SI MM NOT_NAMED 1858-03-04 21:00:00 NR -20.5359 72.4331 main 1521 1520 _____P________ -1 -20.5359 72.4331 99 6 170
1858060S12079 1858 4 SI MM NOT_NAMED 1858-03-05 00:00:00 NR -20.8314 72.5014 main 1530 1530 _____P________ -1 -20.8314 72.5014 99 6 166
1858060S12079 1858 4 SI MM NOT_NAMED 1858-03-05 03:00:00 NR -21.1191 72.5912 main 1541 1541 _____P________ -1 -21.1191 72.5912 99 6 162
1858060S12079 1858 4 SI MM NOT_NAMED 1858-03-05 06:00:00 NR -21.4000 72.7000 reunion main 1552 1552 _____O________ -1 -21.4000 72.7000 99 9.90000 6 160
1858060S12079 1858 4 SI MM NOT_NAMED 1858-03-05 09:00:00 NR -21.7100 72.8198 main 1564 1564 _____P________ -1 -21.7100 72.8198 99 7 158
1858060S12079 1858 4 SI MM NOT_NAMED 1858-03-05 12:00:00 NR -22.0151 72.9642 main 1586 1586 _____P________ -1 -22.0151 72.9642 99 7 155
1858060S12079 1858 4 SI MM NOT_NAMED 1858-03-05 15:00:00 NR -22.3110 73.1270 main 1599 1599 _____P________ -1 -22.3110 73.1270 99 7 152
1858060S12079 1858 4 SI MM NOT_NAMED 1858-03-05 18:00:00 NR -22.5932 73.3022 main 1623 1623 _____P________ -1 -22.5932 73.3022 99 6 149
1858060S12079 1858 4 SI MM NOT_NAMED 1858-03-05 21:00:00 NR -22.8575 73.4834 main 1647 1647 _____P________ -1 -22.8575 73.4834 99 6 147
1858060S12079 1858 4 SI MM NOT_NAMED 1858-03-06 00:00:00 NR -23.0996 73.6643 main 1670 1670 _____P________ -1 -23.0996 73.6643 99 6 144
1858060S12079 1858 4 SI MM NOT_NAMED 1858-03-06 03:00:00 NR -23.3152 73.8387 main 1684 1684 _____P________ -1 -23.3152 73.8387 99 5 142
1858060S12079 1858 4 SI MM NOT_NAMED 1858-03-06 06:00:00 NR -23.5000 74.0000 reunion main 1707 1707 _____O________ -1 -23.5000 74.0000 99 9.90000 4 140
1858060S12079 1858 4 SI MM NOT_NAMED 1858-03-06 09:00:00 NR -23.6513 74.1432 main 1721 1721 _____P________ -1 -23.6513 74.1432 99 4 138
1858060S12079 1858 4 SI MM NOT_NAMED 1858-03-06 12:00:00 NR -23.7721 74.2693 main 1743 1743 _____P________ -1 -23.7721 74.2693 99 3 135
1858060S12079 1858 4 SI MM NOT_NAMED 1858-03-06 15:00:00 NR -23.8667 74.3805 main 1755 1755 _____P________ -1 -23.8667 74.3805 99 3 131
1858060S12079 1858 4 SI MM NOT_NAMED 1858-03-06 18:00:00 NR -23.9395 74.4794 main 1765 1765 _____P________ -1 -23.9395 74.4794 99 2 127
1858060S12079 1858 4 SI MM NOT_NAMED 1858-03-06 21:00:00 NR -23.9949 74.5683 main 1777 1777 _____P________ -1 -23.9949 74.5683 99 2 123
1858060S12079 1858 4 SI MM NOT_NAMED 1858-03-07 00:00:00 NR -24.0372 74.6497 main 1777 1777 _____P________ -1 -24.0372 74.6497 99 2 118
1858060S12079 1858 4 SI MM NOT_NAMED 1858-03-07 03:00:00 NR -24.0708 74.7261 main 1789 1789 _____P________ -1 -24.0708 74.7261 99 2 114
1858060S12079 1858 4 SI MM NOT_NAMED 1858-03-07 06:00:00 NR -24.1000 74.8000 reunion main 1799 _____O________ -1 -24.1000 74.8000 99 9.90000 1 112

IBTrACS Databaseについて

本データベースは、米国NOAAが公開する1842年以降の世界の熱帯低気圧のベストトラックデータアーカイブInternational Best Track Archive for Climate Stewardship (IBTrACS)を、ウェブで閲覧しやすい形式に変換したものです。

最終更新日:2021-12-08